createdAt,value
2019-06-26T00:00:21.611Z,1014.02
2019-06-26T00:01:21.601Z,1013.95
2019-06-26T00:02:21.614Z,1013.95
2019-06-26T00:03:21.632Z,1013.94
2019-06-26T00:04:21.651Z,1013.95
2019-06-26T00:05:21.678Z,1013.96
2019-06-26T00:06:21.701Z,1013.96
2019-06-26T00:07:21.722Z,1013.96
2019-06-26T00:08:21.734Z,1013.98
2019-06-26T00:09:21.756Z,1014.00
2019-06-26T00:10:21.773Z,1014.04
2019-06-26T00:11:21.794Z,1014.04
2019-06-26T00:12:21.807Z,1014.05
2019-06-26T00:13:26.024Z,1014.09
2019-06-26T00:14:21.857Z,1014.07
2019-06-26T00:15:21.873Z,1014.11
2019-06-26T00:16:21.886Z,1014.07
2019-06-26T00:17:21.923Z,1014.10
2019-06-26T00:18:21.928Z,1014.11
2019-06-26T00:19:21.945Z,1014.12
2019-06-26T00:20:21.971Z,1014.10
2019-06-26T00:21:22.169Z,1014.10
2019-06-26T00:22:21.999Z,1014.16
2019-06-26T00:23:22.055Z,1014.11
2019-06-26T00:24:22.039Z,1014.15
2019-06-26T00:25:22.082Z,1014.17
2019-06-26T00:26:22.100Z,1014.15
2019-06-26T00:27:22.110Z,1014.16
2019-06-26T00:28:22.128Z,1014.20
2019-06-26T00:29:22.140Z,1014.22
2019-06-26T00:30:22.161Z,1014.21
2019-06-26T00:31:22.204Z,1014.23
2019-06-26T00:32:22.200Z,1014.20
2019-06-26T00:33:22.213Z,1014.24
2019-06-26T00:34:22.238Z,1014.24
2019-06-26T00:35:22.291Z,1014.25
2019-06-26T00:36:22.290Z,1014.26
2019-06-26T00:37:22.309Z,1014.29
2019-06-26T00:38:22.325Z,1014.27
2019-06-26T00:39:22.332Z,1014.27
2019-06-26T00:40:22.351Z,1014.27
2019-06-26T00:41:22.375Z,1014.24
2019-06-26T00:42:22.397Z,1014.26
2019-06-26T00:43:22.418Z,1014.27
2019-06-26T00:44:22.428Z,1014.28
2019-06-26T00:45:22.454Z,1014.28
2019-06-26T00:46:22.472Z,1014.29
2019-06-26T00:47:22.489Z,1014.31
2019-06-26T00:48:22.520Z,1014.29
2019-06-26T00:49:22.544Z,1014.33
2019-06-26T00:50:22.541Z,1014.32
2019-06-26T00:51:22.568Z,1014.33
2019-06-26T00:52:22.591Z,1014.35
2019-06-26T00:53:22.623Z,1014.33
2019-06-26T00:54:22.625Z,1014.34
2019-06-26T00:55:22.643Z,1014.33
2019-06-26T00:56:22.664Z,1014.35
2019-06-26T00:57:22.675Z,1014.37
2019-06-26T00:58:22.707Z,1014.34
2019-06-26T00:59:22.753Z,1014.35
2019-06-26T01:00:22.751Z,1014.34
2019-06-26T01:01:22.776Z,1014.41
2019-06-26T01:02:22.776Z,1014.43
2019-06-26T01:03:22.796Z,1014.48
2019-06-26T01:04:22.816Z,1014.45
2019-06-26T01:05:22.889Z,1014.45
2019-06-26T01:06:22.857Z,1014.43
2019-06-26T01:07:22.871Z,1014.45
2019-06-26T01:08:22.894Z,1014.47
2019-06-26T01:09:22.916Z,1014.43
2019-06-26T01:10:22.932Z,1014.41
2019-06-26T01:11:22.962Z,1014.45
2019-06-26T01:12:22.992Z,1014.48
2019-06-26T01:13:22.994Z,1014.46
2019-06-26T01:14:23.012Z,1014.48
2019-06-26T01:15:23.026Z,1014.48
2019-06-26T01:16:23.039Z,1014.47
2019-06-26T01:17:23.074Z,1014.50
2019-06-26T01:18:23.089Z,1014.48
2019-06-26T01:19:23.095Z,1014.50
2019-06-26T01:20:23.116Z,1014.53
2019-06-26T01:21:23.136Z,1014.53
2019-06-26T01:22:23.162Z,1014.54
2019-06-26T01:23:23.176Z,1014.53
2019-06-26T01:24:23.191Z,1014.52
2019-06-26T01:25:23.220Z,1014.55
2019-06-26T01:26:23.235Z,1014.53
2019-06-26T01:27:23.251Z,1014.51
2019-06-26T01:28:23.267Z,1014.53
2019-06-26T01:29:23.302Z,1014.51
2019-06-26T01:30:23.314Z,1014.52
2019-06-26T01:31:23.326Z,1014.50
2019-06-26T01:32:23.374Z,1014.55
2019-06-26T01:33:23.368Z,1014.52
2019-06-26T01:34:23.388Z,1014.52
2019-06-26T01:35:23.404Z,1014.54
2019-06-26T01:36:23.425Z,1014.53
2019-06-26T01:37:23.447Z,1014.53
2019-06-26T01:38:23.462Z,1014.56
2019-06-26T01:39:23.478Z,1014.58
2019-06-26T01:40:23.497Z,1014.55
2019-06-26T01:41:23.624Z,1014.57
2019-06-26T01:42:23.601Z,1014.58
2019-06-26T01:43:23.558Z,1014.55
2019-06-26T01:44:23.611Z,1014.61
2019-06-26T01:45:23.596Z,1014.62
2019-06-26T01:46:23.617Z,1014.64
2019-06-26T01:47:23.635Z,1014.63
2019-06-26T01:48:23.681Z,1014.61
2019-06-26T01:49:23.672Z,1014.66
2019-06-26T01:50:23.688Z,1014.65
2019-06-26T01:51:23.716Z,1014.69
2019-06-26T01:52:23.720Z,1014.67
2019-06-26T01:53:23.743Z,1014.70
2019-06-26T01:54:23.772Z,1014.71
2019-06-26T01:55:23.798Z,1014.72
2019-06-26T01:56:23.799Z,1014.75
2019-06-26T01:57:23.818Z,1014.78
2019-06-26T01:58:23.842Z,1014.80
2019-06-26T01:59:23.867Z,1014.80
2019-06-26T02:00:23.885Z,1014.80
2019-06-26T02:01:23.974Z,1014.79
2019-06-26T02:02:23.914Z,1014.80
2019-06-26T02:03:23.943Z,1014.79
2019-06-26T02:04:23.956Z,1014.77
2019-06-26T02:05:23.973Z,1014.77
2019-06-26T02:06:23.987Z,1014.77
2019-06-26T02:07:24.041Z,1014.78
2019-06-26T02:08:24.040Z,1014.79
2019-06-26T02:09:24.072Z,1014.78
2019-06-26T02:10:24.078Z,1014.79
2019-06-26T02:11:24.098Z,1014.84
2019-06-26T02:12:24.102Z,1014.84
2019-06-26T02:13:24.127Z,1014.86
2019-06-26T02:14:31.061Z,1014.89
2019-06-26T02:15:24.158Z,1014.88
2019-06-26T02:16:24.182Z,1014.87
2019-06-26T02:17:24.201Z,1014.87
2019-06-26T02:18:24.217Z,1014.84
2019-06-26T02:19:24.235Z,1014.91
2019-06-26T02:20:24.264Z,1014.91
2019-06-26T02:21:24.275Z,1014.91
2019-06-26T02:22:24.301Z,1014.89
2019-06-26T02:23:24.307Z,1014.96
2019-06-26T02:24:24.351Z,1014.89
2019-06-26T02:25:24.346Z,1014.93
2019-06-26T02:26:24.365Z,1014.90
2019-06-26T02:27:24.380Z,1014.91
2019-06-26T02:28:24.406Z,1014.94
2019-06-26T02:29:24.423Z,1014.94
2019-06-26T02:30:24.444Z,1014.93
2019-06-26T02:31:24.466Z,1014.97
2019-06-26T02:32:24.484Z,1015.00
2019-06-26T02:33:24.493Z,1014.98
2019-06-26T02:34:24.522Z,1014.98
2019-06-26T02:35:24.536Z,1014.98
2019-06-26T02:36:24.551Z,1014.96
2019-06-26T02:37:24.576Z,1014.99
2019-06-26T02:38:24.603Z,1014.97
2019-06-26T02:39:24.610Z,1014.99
2019-06-26T02:40:24.626Z,1014.97
2019-06-26T02:41:24.643Z,1015.01
2019-06-26T02:42:24.668Z,1014.96
2019-06-26T02:43:24.695Z,1014.96
2019-06-26T02:44:24.696Z,1014.99
2019-06-26T02:45:24.717Z,1015.01
2019-06-26T02:46:24.797Z,1014.96
2019-06-26T02:47:24.765Z,1014.99
2019-06-26T02:48:24.773Z,1014.99
2019-06-26T02:49:24.810Z,1014.97
2019-06-26T02:50:24.813Z,1014.98
2019-06-26T02:51:24.834Z,1015.01
2019-06-26T02:52:24.856Z,1015.02
2019-06-26T02:53:24.868Z,1015.03
2019-06-26T02:54:24.928Z,1015.03
2019-06-26T02:55:24.903Z,1015.06
2019-06-26T02:56:24.930Z,1015.05
2019-06-26T02:57:24.943Z,1015.03
2019-06-26T02:58:24.962Z,1015.05
2019-06-26T02:59:24.989Z,1015.05
2019-06-26T03:00:24.992Z,1015.05
2019-06-26T03:01:25.022Z,1015.05
2019-06-26T03:02:25.046Z,1015.07
2019-06-26T03:03:25.057Z,1015.07
2019-06-26T03:04:25.078Z,1015.07
2019-06-26T03:05:25.096Z,1015.10
2019-06-26T03:06:25.113Z,1015.12
2019-06-26T03:07:25.124Z,1015.09
2019-06-26T03:08:25.147Z,1015.10
2019-06-26T03:09:25.168Z,1015.10
2019-06-26T03:10:25.181Z,1015.13
2019-06-26T03:11:25.210Z,1015.17
2019-06-26T03:12:25.254Z,1015.15
2019-06-26T03:13:25.245Z,1015.18
2019-06-26T03:14:25.254Z,1015.18
2019-06-26T03:15:25.273Z,1015.20
2019-06-26T03:16:25.305Z,1015.21
2019-06-26T03:17:25.309Z,1015.24
2019-06-26T03:18:25.327Z,1015.26
2019-06-26T03:19:25.371Z,1015.31
2019-06-26T03:20:25.366Z,1015.26
2019-06-26T03:21:25.381Z,1015.24
2019-06-26T03:22:25.400Z,1015.29
2019-06-26T03:23:25.548Z,1015.26
2019-06-26T03:24:25.463Z,1015.25
2019-06-26T03:25:25.463Z,1015.30
2019-06-26T03:26:25.479Z,1015.33
2019-06-26T03:27:25.516Z,1015.34
2019-06-26T03:28:25.541Z,1015.33
2019-06-26T03:29:25.563Z,1015.32
2019-06-26T03:30:25.546Z,1015.31
2019-06-26T03:31:25.628Z,1015.33
2019-06-26T03:32:25.626Z,1015.38
2019-06-26T03:33:25.603Z,1015.39
2019-06-26T03:34:25.619Z,1015.38
2019-06-26T03:35:25.638Z,1015.37
2019-06-26T03:36:25.660Z,1015.36
2019-06-26T03:37:25.676Z,1015.39
2019-06-26T03:38:25.702Z,1015.43
2019-06-26T03:39:25.727Z,1015.40
2019-06-26T03:40:25.796Z,1015.41
2019-06-26T03:41:25.745Z,1015.41
2019-06-26T03:42:25.762Z,1015.42
2019-06-26T03:43:25.799Z,1015.42
2019-06-26T03:44:25.802Z,1015.40
2019-06-26T03:45:26.581Z,1015.49
2019-06-26T03:46:25.837Z,1015.45
2019-06-26T03:47:25.860Z,1015.49
2019-06-26T03:48:25.921Z,1015.51
2019-06-26T03:49:25.911Z,1015.51
2019-06-26T03:50:26.067Z,1015.51
2019-06-26T03:51:25.935Z,1015.51
2019-06-26T03:52:25.956Z,1015.53
2019-06-26T03:53:25.975Z,1015.53
2019-06-26T03:54:26.002Z,1015.53
2019-06-26T03:55:26.019Z,1015.55
2019-06-26T03:56:26.030Z,1015.55
2019-06-26T03:57:26.050Z,1015.55
2019-06-26T03:58:26.068Z,1015.56
2019-06-26T03:59:26.076Z,1015.56
2019-06-26T04:00:26.092Z,1015.56
2019-06-26T04:01:26.117Z,1015.60
2019-06-26T04:02:26.130Z,1015.63
2019-06-26T04:03:26.151Z,1015.64
2019-06-26T04:04:26.185Z,1015.66
2019-06-26T04:05:26.235Z,1015.66
2019-06-26T04:06:26.201Z,1015.68
2019-06-26T04:07:26.225Z,1015.67
2019-06-26T04:08:26.245Z,1015.68
2019-06-26T04:09:26.263Z,1015.69
2019-06-26T04:10:26.352Z,1015.73
2019-06-26T04:11:26.285Z,1015.73
2019-06-26T04:12:26.367Z,1015.75
2019-06-26T04:13:26.324Z,1015.71
2019-06-26T04:14:26.346Z,1015.75
2019-06-26T04:15:40.775Z,1015.76
2019-06-26T04:16:26.390Z,1015.75
2019-06-26T04:17:26.403Z,1015.79
2019-06-26T04:18:26.442Z,1015.81
2019-06-26T04:19:26.441Z,1015.80
2019-06-26T04:20:26.452Z,1015.83
2019-06-26T04:21:26.484Z,1015.85
2019-06-26T04:22:26.498Z,1015.78
2019-06-26T04:23:26.529Z,1015.83
2019-06-26T04:24:26.532Z,1015.85
2019-06-26T04:25:26.557Z,1015.85
2019-06-26T04:26:26.564Z,1015.86
2019-06-26T04:27:26.592Z,1015.87
2019-06-26T04:28:26.628Z,1015.92
2019-06-26T04:29:26.621Z,1015.95
2019-06-26T04:30:26.638Z,1015.90
2019-06-26T04:31:26.661Z,1015.92
2019-06-26T04:32:26.671Z,1015.95
2019-06-26T04:33:26.709Z,1015.99
2019-06-26T04:34:26.711Z,1015.97
2019-06-26T04:35:26.734Z,1015.98
2019-06-26T04:36:26.777Z,1016.02
2019-06-26T04:37:26.770Z,1016.04
2019-06-26T04:38:26.805Z,1016.03
2019-06-26T04:39:26.809Z,1016.05
2019-06-26T04:40:26.869Z,1016.08
2019-06-26T04:41:26.846Z,1016.10
2019-06-26T04:42:26.858Z,1016.12
2019-06-26T04:43:26.889Z,1016.13
2019-06-26T04:44:26.898Z,1016.13
2019-06-26T04:45:26.915Z,1016.17
2019-06-26T04:46:26.927Z,1016.16
2019-06-26T04:47:26.951Z,1016.19
2019-06-26T04:48:26.973Z,1016.18
2019-06-26T04:50:27.790Z,1016.21
2019-06-26T04:51:27.409Z,1016.22
2019-06-26T04:52:27.577Z,1016.23
2019-06-26T04:53:27.844Z,1016.22
2019-06-26T04:54:27.583Z,1016.21
2019-06-26T04:55:27.127Z,1016.21
2019-06-26T04:56:27.209Z,1016.21
2019-06-26T04:57:27.162Z,1016.23
2019-06-26T04:58:27.185Z,1016.21
2019-06-26T04:59:27.187Z,1016.22
2019-06-26T05:00:27.205Z,1016.21
2019-06-26T05:01:27.197Z,1016.26
2019-06-26T05:02:27.221Z,1016.26
2019-06-26T05:03:27.235Z,1016.28
2019-06-26T05:04:27.258Z,1016.24
2019-06-26T05:05:39.220Z,1016.31
2019-06-26T05:06:27.288Z,1016.30
2019-06-26T05:07:27.311Z,1016.33
2019-06-26T05:08:27.333Z,1016.36
2019-06-26T05:09:27.405Z,1016.36
2019-06-26T05:10:27.370Z,1016.34
2019-06-26T05:11:27.530Z,1016.37
2019-06-26T05:12:27.414Z,1016.40
2019-06-26T05:13:27.432Z,1016.40
2019-06-26T05:14:27.433Z,1016.39
2019-06-26T05:15:27.444Z,1016.42
2019-06-26T05:17:27.484Z,1016.47
2019-06-26T05:18:27.501Z,1016.43
2019-06-26T05:19:27.517Z,1016.41
2019-06-26T05:20:27.541Z,1016.40
2019-06-26T05:21:27.564Z,1016.40
2019-06-26T05:22:27.595Z,1016.41
2019-06-26T05:23:27.592Z,1016.43
2019-06-26T05:24:27.615Z,1016.41
2019-06-26T05:25:27.655Z,1016.45
2019-06-26T05:26:27.655Z,1016.44
2019-06-26T05:27:27.670Z,1016.43
2019-06-26T05:28:27.680Z,1016.43
2019-06-26T05:29:27.699Z,1016.46
2019-06-26T05:30:27.726Z,1016.44
2019-06-26T05:31:27.742Z,1016.50
2019-06-26T05:32:27.760Z,1016.52
2019-06-26T05:33:27.774Z,1016.57
2019-06-26T05:34:27.795Z,1016.54
2019-06-26T05:35:28.305Z,1016.55
2019-06-26T05:36:27.828Z,1016.62
2019-06-26T05:37:27.844Z,1016.61
2019-06-26T05:38:27.861Z,1016.61
2019-06-26T05:39:27.960Z,1016.67
2019-06-26T05:40:27.896Z,1016.67
2019-06-26T05:41:28.118Z,1016.67
2019-06-26T05:42:27.948Z,1016.70
2019-06-26T05:43:27.952Z,1016.76
2019-06-26T05:44:27.974Z,1016.76
2019-06-26T05:45:27.993Z,1016.73
2019-06-26T05:46:31.563Z,1016.72
2019-06-26T05:47:28.033Z,1016.75
2019-06-26T05:48:28.042Z,1016.75
2019-06-26T05:49:28.104Z,1016.75
2019-06-26T05:50:28.075Z,1016.77
2019-06-26T05:51:28.127Z,1016.77
2019-06-26T05:52:28.112Z,1016.80
2019-06-26T05:53:28.130Z,1016.79
2019-06-26T05:54:28.156Z,1016.80
2019-06-26T05:55:28.170Z,1016.81
2019-06-26T05:56:28.199Z,1016.84
2019-06-26T05:57:29.394Z,1016.82
2019-06-26T05:58:28.249Z,1016.79
2019-06-26T05:59:28.234Z,1016.82
2019-06-26T06:00:28.256Z,1016.82
2019-06-26T06:01:28.287Z,1016.80
2019-06-26T06:02:28.290Z,1016.83
2019-06-26T06:03:28.319Z,1016.80
2019-06-26T06:04:28.335Z,1016.86
2019-06-26T06:05:28.355Z,1016.84
2019-06-26T06:06:40.982Z,1016.85
2019-06-26T06:07:28.384Z,1016.82
2019-06-26T06:08:28.683Z,1016.85
2019-06-26T06:09:28.481Z,1016.85
2019-06-26T06:10:28.455Z,1016.90
2019-06-26T06:11:28.480Z,1016.91
2019-06-26T06:12:28.474Z,1016.87
2019-06-26T06:13:28.527Z,1016.90
2019-06-26T06:14:28.555Z,1016.87
2019-06-26T06:15:28.695Z,1016.88
2019-06-26T06:16:28.694Z,1016.87
2019-06-26T06:17:29.130Z,1016.89
2019-06-26T06:18:28.817Z,1016.93
2019-06-26T06:19:28.926Z,1016.95
2019-06-26T06:20:28.825Z,1016.93
2019-06-26T06:21:28.634Z,1016.97
2019-06-26T06:22:28.653Z,1016.94
2019-06-26T06:23:28.689Z,1016.95
2019-06-26T06:24:28.690Z,1016.96
2019-06-26T06:25:28.709Z,1016.96
2019-06-26T06:26:28.728Z,1016.96
2019-06-26T06:27:28.754Z,1017.00
2019-06-26T06:28:28.791Z,1017.01
2019-06-26T06:29:30.869Z,1016.94
2019-06-26T06:30:28.815Z,1017.03
2019-06-26T06:31:29.129Z,1016.98
2019-06-26T06:32:28.838Z,1017.00
2019-06-26T06:34:28.879Z,1017.01
2019-06-26T06:35:28.908Z,1016.99
2019-06-26T06:36:28.909Z,1017.02
2019-06-26T06:38:28.955Z,1017.04
2019-06-26T06:39:28.978Z,1017.04
2019-06-26T06:40:28.991Z,1017.02
2019-06-26T06:41:29.019Z,1017.04
2019-06-26T06:42:29.043Z,1017.08
2019-06-26T06:43:29.068Z,1017.06
2019-06-26T06:44:29.052Z,1017.10
2019-06-26T06:45:29.080Z,1017.12
2019-06-26T06:46:29.108Z,1017.09
2019-06-26T06:47:29.113Z,1017.09
2019-06-26T06:48:29.434Z,1017.12
2019-06-26T06:49:29.148Z,1017.17
2019-06-26T06:50:29.166Z,1017.19
2019-06-26T06:51:29.185Z,1017.19
2019-06-26T06:52:29.200Z,1017.18
2019-06-26T06:53:29.272Z,1017.23
2019-06-26T06:54:29.259Z,1017.16
2019-06-26T06:55:29.265Z,1017.16
2019-06-26T06:56:29.492Z,1017.19
2019-06-26T06:57:29.343Z,1017.17
2019-06-26T06:58:30.416Z,1017.17
2019-06-26T06:59:29.334Z,1017.22
2019-06-26T07:00:29.361Z,1017.18
2019-06-26T07:01:29.371Z,1017.22
2019-06-26T07:02:29.388Z,1017.20
2019-06-26T07:03:29.430Z,1017.18
2019-06-26T07:04:29.573Z,1017.19
2019-06-26T07:05:29.441Z,1017.20
2019-06-26T07:06:29.484Z,1017.21
2019-06-26T07:07:29.499Z,1017.24
2019-06-26T07:08:29.798Z,1017.25
2019-06-26T07:09:29.534Z,1017.26
2019-06-26T07:10:29.534Z,1017.29
2019-06-26T07:11:29.562Z,1017.28
2019-06-26T07:12:29.577Z,1017.32
2019-06-26T07:13:29.604Z,1017.33
2019-06-26T07:14:29.623Z,1017.33
2019-06-26T07:15:29.634Z,1017.33
2019-06-26T07:16:29.645Z,1017.32
2019-06-26T07:17:29.674Z,1017.33
2019-06-26T07:18:29.752Z,1017.35
2019-06-26T07:19:29.710Z,1017.34
2019-06-26T07:20:29.729Z,1017.39
2019-06-26T07:21:29.748Z,1017.44
2019-06-26T07:22:29.785Z,1017.45
2019-06-26T07:23:29.774Z,1017.45
2019-06-26T07:24:29.797Z,1017.47
2019-06-26T07:25:29.989Z,1017.46
2019-06-26T07:26:29.869Z,1017.50
2019-06-26T07:27:29.857Z,1017.54
2019-06-26T07:28:30.637Z,1017.58
2019-06-26T07:29:29.976Z,1017.60
2019-06-26T07:30:29.964Z,1017.61
2019-06-26T07:31:30.060Z,1017.61
2019-06-26T07:32:30.167Z,1017.60
2019-06-26T07:33:29.967Z,1017.58
2019-06-26T07:34:29.987Z,1017.60
2019-06-26T07:35:31.393Z,1017.55
2019-06-26T07:36:30.026Z,1017.63
2019-06-26T07:37:30.070Z,1017.64
2019-06-26T07:38:30.072Z,1017.67
2019-06-26T07:39:30.184Z,1017.72
2019-06-26T07:40:30.150Z,1017.70
2019-06-26T07:41:30.125Z,1017.66
2019-06-26T07:42:30.198Z,1017.67
2019-06-26T07:43:30.183Z,1017.69
2019-06-26T07:44:30.225Z,1017.65
2019-06-26T07:45:30.362Z,1017.66
2019-06-26T07:46:30.311Z,1017.72
2019-06-26T07:47:42.537Z,1017.67
2019-06-26T07:49:30.458Z,1017.67
2019-06-26T07:50:32.530Z,1017.69
2019-06-26T07:51:30.366Z,1017.69
2019-06-26T07:52:30.388Z,1017.67
2019-06-26T07:53:30.383Z,1017.70
2019-06-26T07:54:30.365Z,1017.68
2019-06-26T07:55:30.393Z,1017.69
2019-06-26T07:56:30.504Z,1017.68
2019-06-26T07:57:30.478Z,1017.71
2019-06-26T07:58:30.439Z,1017.70
2019-06-26T07:59:30.450Z,1017.71
2019-06-26T08:00:31.849Z,1017.72
2019-06-26T08:01:30.497Z,1017.74
2019-06-26T08:02:31.984Z,1017.70
2019-06-26T08:03:31.174Z,1017.69
2019-06-26T08:04:30.683Z,1017.74
2019-06-26T08:05:30.577Z,1017.78
2019-06-26T08:06:30.599Z,1017.75
2019-06-26T08:07:30.849Z,1017.73
2019-06-26T08:09:32.114Z,1017.74
2019-06-26T08:10:32.336Z,1017.77
2019-06-26T08:11:30.694Z,1017.84
2019-06-26T08:12:31.354Z,1017.78
2019-06-26T08:13:31.449Z,1017.84
2019-06-26T08:14:31.410Z,1017.81
2019-06-26T08:15:31.271Z,1017.78
2019-06-26T08:16:34.333Z,1017.82
2019-06-26T08:17:30.794Z,1017.80
2019-06-26T08:18:31.043Z,1017.84
2019-06-26T08:19:30.847Z,1017.86
2019-06-26T08:20:30.862Z,1017.82
2019-06-26T08:21:30.889Z,1017.86
2019-06-26T08:22:31.022Z,1017.90
2019-06-26T08:23:30.923Z,1017.88
2019-06-26T08:24:30.964Z,1017.88
2019-06-26T08:25:30.959Z,1017.86
2019-06-26T08:26:30.982Z,1017.83
2019-06-26T08:27:30.992Z,1017.87
2019-06-26T08:28:32.131Z,1017.86
2019-06-26T08:29:31.869Z,1017.85
2019-06-26T08:30:31.145Z,1017.86
2019-06-26T08:31:31.268Z,1017.91
2019-06-26T08:32:31.202Z,1017.94
2019-06-26T08:33:31.105Z,1017.91
2019-06-26T08:34:32.694Z,1017.90
2019-06-26T08:35:34.326Z,1017.90
2019-06-26T08:36:32.518Z,1017.95
2019-06-26T08:37:31.751Z,1017.95
2019-06-26T08:38:32.182Z,1017.96
2019-06-26T08:39:31.242Z,1017.98
2019-06-26T08:40:31.536Z,1017.97
2019-06-26T08:41:33.791Z,1017.96
2019-06-26T08:42:31.302Z,1018.02
2019-06-26T08:43:31.661Z,1018.01
2019-06-26T08:44:31.373Z,1018.01
2019-06-26T08:45:31.335Z,1018.08
2019-06-26T08:46:31.395Z,1018.04
2019-06-26T08:47:31.455Z,1018.06
2019-06-26T08:48:39.785Z,1018.11
2019-06-26T08:49:31.422Z,1018.13
2019-06-26T08:50:31.425Z,1018.16
2019-06-26T08:51:31.498Z,1018.11
2019-06-26T08:52:31.473Z,1018.15
2019-06-26T08:53:31.485Z,1018.10
2019-06-26T08:54:31.501Z,1018.08
2019-06-26T08:55:32.087Z,1018.09
2019-06-26T08:56:31.598Z,1018.08
2019-06-26T08:57:31.658Z,1018.13
2019-06-26T08:58:31.592Z,1018.13
2019-06-26T08:59:32.242Z,1018.16
2019-06-26T09:00:31.679Z,1018.14
2019-06-26T09:01:31.647Z,1018.23
2019-06-26T09:02:31.684Z,1018.21
2019-06-26T09:03:31.740Z,1018.21
2019-06-26T09:04:31.714Z,1018.23
2019-06-26T09:05:46.934Z,1018.20
2019-06-26T09:06:31.791Z,1018.25
2019-06-26T09:07:31.854Z,1018.20
2019-06-26T09:08:31.864Z,1018.21
2019-06-26T09:09:31.800Z,1018.18
2019-06-26T09:10:31.824Z,1018.22
2019-06-26T09:11:31.842Z,1018.20
2019-06-26T09:12:31.857Z,1018.24
2019-06-26T09:13:31.887Z,1018.24
2019-06-26T09:14:31.915Z,1018.26
2019-06-26T09:15:31.928Z,1018.35
2019-06-26T09:16:33.257Z,1018.33
2019-06-26T09:18:35.849Z,1018.30
2019-06-26T09:19:33.030Z,1018.28
2019-06-26T09:20:32.239Z,1018.33
2019-06-26T09:21:32.671Z,1018.35
2019-06-26T09:22:32.074Z,1018.36
2019-06-26T09:23:32.083Z,1018.35
2019-06-26T09:24:32.125Z,1018.38
2019-06-26T09:25:32.105Z,1018.42
2019-06-26T09:26:32.138Z,1018.38
2019-06-26T09:27:32.264Z,1018.35
2019-06-26T09:28:32.206Z,1018.36
2019-06-26T09:29:32.252Z,1018.39
2019-06-26T09:30:32.264Z,1018.39
2019-06-26T09:31:32.283Z,1018.44
2019-06-26T09:32:32.873Z,1018.42
2019-06-26T09:33:33.141Z,1018.42
2019-06-26T09:35:32.351Z,1018.42
2019-06-26T09:36:32.496Z,1018.43
2019-06-26T09:37:32.445Z,1018.36
2019-06-26T09:38:32.435Z,1018.43
2019-06-26T09:39:32.397Z,1018.43
2019-06-26T09:40:32.628Z,1018.42
2019-06-26T09:42:32.542Z,1018.45
2019-06-26T09:43:32.464Z,1018.46
2019-06-26T09:44:34.177Z,1018.46
2019-06-26T09:45:32.493Z,1018.47
2019-06-26T09:46:32.530Z,1018.46
2019-06-26T09:47:33.026Z,1018.45
2019-06-26T09:48:32.574Z,1018.47
2019-06-26T09:49:32.776Z,1018.46
2019-06-26T09:50:32.593Z,1018.48
2019-06-26T09:51:32.742Z,1018.52
2019-06-26T09:52:32.846Z,1018.50
2019-06-26T09:53:46.494Z,1018.49
2019-06-26T09:54:32.810Z,1018.46
2019-06-26T09:55:33.090Z,1018.50
2019-06-26T09:56:32.724Z,1018.45
2019-06-26T09:57:32.992Z,1018.50
2019-06-26T09:58:33.647Z,1018.52
2019-06-26T09:59:32.765Z,1018.50
2019-06-26T10:00:32.787Z,1018.52
2019-06-26T10:01:32.803Z,1018.53
2019-06-26T10:02:32.824Z,1018.56
2019-06-26T10:03:32.914Z,1018.56
2019-06-26T10:04:32.912Z,1018.54
2019-06-26T10:05:32.924Z,1018.51
2019-06-26T10:06:32.962Z,1018.52
2019-06-26T10:07:33.296Z,1018.53
2019-06-26T10:08:33.027Z,1018.48
2019-06-26T10:09:32.981Z,1018.48
2019-06-26T10:10:32.999Z,1018.48
2019-06-26T10:11:33.238Z,1018.50
2019-06-26T10:13:33.237Z,1018.49
2019-06-26T10:14:46.501Z,1018.53
2019-06-26T10:15:33.113Z,1018.50
2019-06-26T10:16:33.099Z,1018.47
2019-06-26T10:17:33.203Z,1018.53
2019-06-26T10:18:33.158Z,1018.50
2019-06-26T10:19:33.191Z,1018.52
2019-06-26T10:20:33.207Z,1018.50
2019-06-26T10:21:33.210Z,1018.51
2019-06-26T10:22:33.398Z,1018.47
2019-06-26T10:23:33.265Z,1018.51
2019-06-26T10:25:33.319Z,1018.53
2019-06-26T10:26:33.355Z,1018.48
2019-06-26T10:27:33.368Z,1018.52
2019-06-26T10:28:33.363Z,1018.51
2019-06-26T10:29:33.373Z,1018.56
2019-06-26T10:30:33.403Z,1018.50
2019-06-26T10:31:33.418Z,1018.44
2019-06-26T10:32:33.427Z,1018.43
2019-06-26T10:33:33.473Z,1018.44
2019-06-26T10:34:33.481Z,1018.47
2019-06-26T10:35:33.572Z,1018.49
2019-06-26T10:36:33.813Z,1018.47
2019-06-26T10:37:33.528Z,1018.54
2019-06-26T10:38:33.537Z,1018.56
2019-06-26T10:39:33.612Z,1018.55
2019-06-26T10:40:33.850Z,1018.58
2019-06-26T10:41:33.603Z,1018.60
2019-06-26T10:42:33.631Z,1018.70
2019-06-26T10:43:33.638Z,1018.62
2019-06-26T10:44:33.663Z,1018.66
2019-06-26T10:45:36.070Z,1018.69
2019-06-26T10:46:33.702Z,1018.68
2019-06-26T10:47:33.719Z,1018.71
2019-06-26T10:48:33.794Z,1018.74
2019-06-26T10:49:33.770Z,1018.80
2019-06-26T10:50:34.021Z,1018.81
2019-06-26T10:51:33.834Z,1018.75
2019-06-26T10:52:33.837Z,1018.77
2019-06-26T10:53:33.861Z,1018.78
2019-06-26T10:54:34.082Z,1018.78
2019-06-26T10:55:33.907Z,1018.81
2019-06-26T10:56:33.901Z,1018.88
2019-06-26T10:57:33.942Z,1018.80
2019-06-26T10:58:35.010Z,1018.77
2019-06-26T10:59:33.964Z,1018.82
2019-06-26T11:00:33.994Z,1018.77
2019-06-26T11:01:34.993Z,1018.77
2019-06-26T11:02:34.035Z,1018.70
2019-06-26T11:03:34.120Z,1018.69
2019-06-26T11:04:34.064Z,1018.70
2019-06-26T11:05:34.096Z,1018.68
2019-06-26T11:06:37.012Z,1018.66
2019-06-26T11:07:36.475Z,1018.71
2019-06-26T11:08:34.155Z,1018.66
2019-06-26T11:09:34.174Z,1018.69
2019-06-26T11:10:34.195Z,1018.75
2019-06-26T11:11:34.224Z,1018.73
2019-06-26T11:12:34.232Z,1018.68
2019-06-26T11:13:34.249Z,1018.73
2019-06-26T11:14:34.269Z,1018.67
2019-06-26T11:15:34.288Z,1018.73
2019-06-26T11:16:34.307Z,1018.73
2019-06-26T11:17:34.381Z,1018.78
2019-06-26T11:18:34.340Z,1018.81
2019-06-26T11:19:43.886Z,1018.77
2019-06-26T11:20:34.399Z,1018.79
2019-06-26T11:21:34.440Z,1018.80
2019-06-26T11:22:34.433Z,1018.78
2019-06-26T11:23:34.448Z,1018.75
2019-06-26T11:24:34.478Z,1018.70
2019-06-26T11:25:34.483Z,1018.74
2019-06-26T11:26:34.514Z,1018.77
2019-06-26T11:27:34.536Z,1018.81
2019-06-26T11:28:34.546Z,1018.81
2019-06-26T11:29:35.032Z,1018.85
2019-06-26T11:30:35.137Z,1018.84
2019-06-26T11:31:34.622Z,1018.91
2019-06-26T11:32:34.656Z,1018.86
2019-06-26T11:33:34.646Z,1018.83
2019-06-26T11:34:35.124Z,1018.91
2019-06-26T11:35:34.689Z,1018.85
2019-06-26T11:36:34.710Z,1018.90
2019-06-26T11:37:34.727Z,1018.91
2019-06-26T11:38:34.774Z,1018.90
2019-06-26T11:39:34.770Z,1018.89
2019-06-26T11:40:34.784Z,1018.83
2019-06-26T11:41:34.808Z,1018.89
2019-06-26T11:42:34.831Z,1018.87
2019-06-26T11:43:34.853Z,1018.89
2019-06-26T11:44:34.890Z,1018.83
2019-06-26T11:45:34.894Z,1018.87
2019-06-26T11:46:37.067Z,1018.84
2019-06-26T11:47:34.926Z,1018.83
2019-06-26T11:48:34.947Z,1018.82
2019-06-26T11:49:34.968Z,1018.82
2019-06-26T11:50:35.685Z,1018.81
2019-06-26T11:51:35.023Z,1018.83
2019-06-26T11:52:35.034Z,1018.83
2019-06-26T11:53:35.221Z,1018.79
2019-06-26T11:54:35.076Z,1018.76
2019-06-26T11:55:35.092Z,1018.78
2019-06-26T11:56:35.137Z,1018.79
2019-06-26T11:57:35.134Z,1018.75
2019-06-26T11:58:35.169Z,1018.77
2019-06-26T11:59:35.196Z,1018.77
2019-06-26T12:00:35.193Z,1018.77
2019-06-26T12:01:35.220Z,1018.76
2019-06-26T12:02:35.254Z,1018.77
2019-06-26T12:03:35.253Z,1018.76
2019-06-26T12:04:35.277Z,1018.78
2019-06-26T12:05:35.325Z,1018.77
2019-06-26T12:06:35.318Z,1018.79
2019-06-26T12:07:35.346Z,1018.82
2019-06-26T12:08:35.356Z,1018.78
2019-06-26T12:09:35.418Z,1018.74
2019-06-26T12:10:35.408Z,1018.73
2019-06-26T12:11:35.454Z,1018.74
2019-06-26T12:12:35.481Z,1018.71
2019-06-26T12:13:35.516Z,1018.72
2019-06-26T12:14:35.489Z,1018.75
2019-06-26T12:15:35.515Z,1018.81
2019-06-26T12:16:35.537Z,1018.79